createdAt,value
2023-02-04T00:01:55.502Z,0.73
2023-02-04T00:04:21.977Z,1.08
2023-02-04T00:06:48.473Z,0.93
2023-02-04T00:09:16.418Z,1.23
2023-02-04T00:11:42.897Z,0.80
2023-02-04T00:14:09.551Z,0.95
2023-02-04T00:16:36.023Z,0.93
2023-02-04T00:19:02.467Z,0.85
2023-02-04T00:21:29.052Z,0.80
2023-02-04T00:23:57.867Z,0.90
2023-02-04T00:26:24.956Z,1.13
2023-02-04T00:28:51.462Z,1.00
2023-02-04T00:31:17.993Z,1.00
2023-02-04T00:33:44.558Z,1.33
2023-02-04T00:36:11.068Z,0.80
2023-02-04T00:38:39.936Z,1.13
2023-02-04T00:41:07.017Z,1.10
2023-02-04T00:43:33.727Z,1.30
2023-02-04T00:46:00.474Z,1.33
2023-02-04T00:48:27.427Z,1.00
2023-02-04T00:50:54.320Z,0.90
2023-02-04T00:53:20.978Z,1.00
2023-02-04T00:55:47.744Z,0.80
2023-02-04T00:58:14.271Z,0.90
2023-02-04T01:00:40.970Z,0.80
2023-02-04T01:03:07.766Z,0.80
2023-02-04T01:05:34.274Z,0.80
2023-02-04T01:08:00.942Z,0.63
2023-02-04T01:10:28.521Z,0.75
2023-02-04T01:12:56.616Z,0.75
2023-02-04T01:15:23.274Z,0.90
2023-02-04T01:17:50.873Z,0.80
2023-02-04T01:20:17.500Z,0.60
2023-02-04T01:22:44.054Z,0.73
2023-02-04T01:25:10.746Z,0.47
2023-02-04T01:27:40.891Z,0.60
2023-02-04T01:30:08.597Z,0.88
2023-02-04T01:32:35.395Z,0.60
2023-02-04T01:35:02.165Z,0.68
2023-02-04T01:37:28.794Z,0.60
2023-02-04T01:39:55.237Z,0.55
2023-02-04T01:42:21.907Z,0.57
2023-02-04T01:44:48.903Z,0.40
2023-02-04T01:47:15.469Z,0.50
2023-02-04T01:49:42.450Z,0.50
2023-02-04T01:52:11.086Z,0.57
2023-02-04T01:54:37.705Z,0.50
2023-02-04T01:57:04.288Z,0.60
2023-02-04T01:59:30.922Z,0.60
2023-02-04T02:01:59.888Z,0.70
2023-02-04T02:04:32.779Z,0.60
2023-02-04T02:07:05.412Z,0.85
2023-02-04T02:09:34.124Z,0.70
2023-02-04T02:12:03.156Z,0.70
2023-02-04T02:14:29.681Z,0.65
2023-02-04T02:16:57.182Z,0.80
2023-02-04T02:19:35.834Z,0.60
2023-02-04T02:22:07.410Z,0.70
2023-02-04T02:24:35.583Z,0.70
2023-02-04T02:27:07.276Z,0.57
2023-02-04T02:29:34.414Z,0.80
2023-02-04T02:32:01.326Z,0.70
2023-02-04T02:34:29.402Z,0.82
2023-02-04T02:36:57.579Z,0.80
2023-02-04T02:39:24.988Z,0.60
2023-02-04T02:41:51.676Z,0.80
2023-02-04T02:44:18.672Z,0.90
2023-02-04T02:46:45.771Z,0.43
2023-02-04T02:49:17.103Z,0.70
2023-02-04T02:51:44.730Z,1.00
2023-02-04T02:54:29.590Z,0.80
2023-02-04T02:56:59.668Z,0.70
2023-02-04T02:59:26.979Z,0.70
2023-02-04T03:02:00.870Z,0.80
2023-02-04T03:04:31.709Z,1.00
2023-02-04T03:06:58.556Z,0.70
2023-02-04T03:09:27.225Z,0.70
2023-02-04T03:11:54.292Z,0.98
2023-02-04T03:14:24.238Z,0.77
2023-02-04T03:16:52.889Z,1.00
2023-02-04T03:19:20.721Z,1.20
2023-02-04T03:21:49.769Z,0.75
2023-02-04T03:24:16.869Z,0.80
2023-02-04T03:26:43.439Z,0.88
2023-02-04T03:29:11.668Z,1.00
2023-02-04T03:31:38.397Z,1.15
2023-02-04T03:34:05.528Z,0.80
2023-02-04T03:36:32.050Z,1.00
2023-02-04T03:38:58.730Z,0.90
2023-02-04T03:41:25.177Z,0.95
2023-02-04T03:43:51.626Z,0.88
2023-02-04T03:46:18.087Z,0.80
2023-02-04T03:48:44.603Z,0.82
2023-02-04T03:51:11.461Z,0.90
2023-02-04T03:53:37.990Z,1.00
2023-02-04T03:56:04.850Z,0.93
2023-02-04T03:58:31.320Z,1.02
2023-02-04T04:00:57.822Z,1.15
2023-02-04T04:03:24.386Z,0.90
2023-02-04T04:05:50.796Z,0.80
2023-02-04T04:08:17.317Z,1.02
2023-02-04T04:10:43.747Z,0.80
2023-02-04T04:13:10.215Z,0.93
2023-02-04T04:15:39.487Z,0.90
2023-02-04T04:18:07.258Z,0.90
2023-02-04T04:20:34.449Z,0.95
2023-02-04T04:23:01.084Z,1.20
2023-02-04T04:25:27.705Z,0.80
2023-02-04T04:27:54.266Z,1.00
2023-02-04T04:30:20.862Z,0.88
2023-02-04T04:32:47.358Z,0.95
2023-02-04T04:35:13.860Z,0.88
2023-02-04T04:37:40.635Z,1.00
2023-02-04T04:40:07.529Z,1.10
2023-02-04T04:42:33.981Z,1.02
2023-02-04T04:45:00.426Z,1.00
2023-02-04T04:47:26.964Z,1.05
2023-02-04T04:49:53.457Z,1.10
2023-02-04T04:52:19.950Z,1.02
2023-02-04T04:54:46.761Z,0.98
2023-02-04T04:57:13.255Z,1.30
2023-02-04T04:59:39.710Z,1.30
2023-02-04T05:02:06.269Z,1.05
2023-02-04T05:04:32.808Z,0.90
2023-02-04T05:06:59.357Z,1.15
2023-02-04T05:09:26.930Z,0.82
2023-02-04T05:11:53.531Z,1.20
2023-02-04T05:14:20.105Z,1.10
2023-02-04T05:16:46.556Z,1.10
2023-02-04T05:19:13.109Z,1.67
2023-02-04T05:21:39.586Z,1.60
2023-02-04T05:24:06.522Z,1.30
2023-02-04T05:26:33.573Z,1.33
2023-02-04T05:29:00.547Z,0.90
2023-02-04T05:31:27.537Z,1.33
2023-02-04T05:33:54.676Z,0.90
2023-02-04T05:36:21.810Z,1.20
2023-02-04T05:38:48.596Z,1.10
2023-02-04T05:41:15.142Z,1.30
2023-02-04T05:43:41.718Z,1.30
2023-02-04T05:46:08.324Z,1.05
2023-02-04T05:48:35.961Z,1.10
2023-02-04T05:51:02.736Z,1.00
2023-02-04T05:53:29.261Z,1.05
2023-02-04T05:55:56.066Z,0.90
2023-02-04T05:58:22.528Z,1.30
2023-02-04T06:00:49.031Z,0.90
2023-02-04T06:03:15.624Z,1.23
2023-02-04T06:05:44.181Z,0.80
2023-02-04T06:08:11.062Z,1.08
2023-02-04T06:10:37.642Z,1.15
2023-02-04T06:13:04.098Z,1.20
2023-02-04T06:15:30.602Z,1.20
2023-02-04T06:17:58.327Z,1.20
2023-02-04T06:20:24.862Z,1.10
2023-02-04T06:22:51.750Z,1.33
2023-02-04T06:25:18.509Z,1.38
2023-02-04T06:27:45.045Z,1.35
2023-02-04T06:30:12.391Z,1.48
2023-02-04T06:32:38.881Z,1.48
2023-02-04T06:35:05.900Z,1.65
2023-02-04T06:37:32.645Z,1.30
2023-02-04T06:39:59.209Z,1.50
2023-02-04T06:42:25.710Z,1.40
2023-02-04T06:44:54.049Z,1.38
2023-02-04T06:47:20.557Z,1.35
2023-02-04T06:49:47.095Z,1.23
2023-02-04T06:52:13.694Z,1.40
2023-02-04T06:54:40.215Z,1.45
2023-02-04T06:57:06.800Z,1.20
2023-02-04T06:59:35.304Z,1.23
2023-02-04T07:02:02.471Z,1.30
2023-02-04T07:04:28.964Z,1.40
2023-02-04T07:06:55.702Z,1.25
2023-02-04T07:09:22.417Z,1.50
2023-02-04T07:11:49.018Z,1.20
2023-02-04T07:14:15.486Z,1.30
2023-02-04T07:16:41.932Z,1.20
2023-02-04T07:19:08.500Z,1.30
2023-02-04T07:21:35.089Z,1.50
2023-02-04T07:24:01.734Z,1.50
2023-02-04T07:26:28.274Z,1.38
2023-02-04T07:28:54.792Z,1.20
2023-02-04T07:31:21.405Z,1.75
2023-02-04T07:33:48.164Z,1.70
2023-02-04T07:36:15.413Z,2.17
2023-02-04T07:38:41.928Z,2.50
2023-02-04T07:41:08.421Z,2.38
2023-02-04T07:43:35.187Z,2.10
2023-02-04T07:46:01.732Z,1.85
2023-02-04T07:48:28.256Z,2.00
2023-02-04T07:50:54.692Z,1.73
2023-02-04T07:53:21.107Z,1.48
2023-02-04T07:55:47.538Z,1.50
2023-02-04T07:58:14.058Z,1.50
2023-02-04T08:00:40.569Z,1.58
2023-02-04T08:03:07.169Z,1.88
2023-02-04T08:05:33.665Z,2.10
2023-02-04T08:08:01.973Z,1.75
2023-02-04T08:10:28.518Z,2.20
2023-02-04T08:12:56.183Z,2.05
2023-02-04T08:15:23.887Z,2.70
2023-02-04T08:17:50.322Z,2.40
2023-02-04T08:20:18.459Z,2.40
2023-02-04T08:22:45.193Z,2.17
2023-02-04T08:25:12.838Z,1.70
2023-02-04T08:27:39.490Z,2.00
2023-02-04T08:30:06.633Z,1.70
2023-02-04T08:32:33.297Z,1.95
2023-02-04T08:34:59.859Z,2.10
2023-02-04T08:37:26.440Z,2.60
2023-02-04T08:39:53.102Z,2.40
2023-02-04T08:42:19.949Z,1.90
2023-02-04T08:44:46.560Z,1.92
2023-02-04T08:47:13.099Z,1.83
2023-02-04T08:49:39.693Z,1.77
2023-02-04T08:52:07.924Z,1.50
2023-02-04T08:54:35.203Z,1.42
2023-02-04T08:57:02.551Z,1.55
2023-02-04T08:59:29.023Z,1.50
2023-02-04T09:01:55.584Z,1.75
2023-02-04T09:04:23.639Z,1.70
2023-02-04T09:06:50.802Z,1.88
2023-02-04T09:09:20.978Z,1.67
2023-02-04T09:11:48.873Z,1.52
2023-02-04T09:14:15.355Z,1.52
2023-02-04T09:16:41.947Z,1.63
2023-02-04T09:19:10.939Z,2.00
2023-02-04T09:21:37.409Z,1.58
2023-02-04T09:24:04.052Z,1.90
2023-02-04T09:26:30.938Z,1.70
2023-02-04T09:28:57.456Z,1.55
2023-02-04T09:31:24.178Z,1.35
2023-02-04T09:33:50.838Z,1.40
2023-02-04T09:36:17.494Z,1.42
2023-02-04T09:38:44.233Z,1.58
2023-02-04T09:41:12.821Z,1.13
2023-02-04T09:43:43.006Z,1.27
2023-02-04T09:46:21.473Z,1.42
2023-02-04T09:48:49.392Z,1.10
2023-02-04T09:51:23.239Z,1.17
2023-02-04T09:53:53.792Z,1.05
2023-02-04T09:56:20.442Z,1.27
2023-02-04T09:58:48.044Z,0.95
2023-02-04T10:01:18.318Z,0.93
2023-02-04T10:03:47.035Z,1.08
2023-02-04T10:06:19.039Z,1.00
2023-02-04T10:08:47.696Z,0.95
2023-02-04T10:11:15.883Z,0.95
2023-02-04T10:13:45.608Z,1.10
2023-02-04T10:16:19.362Z,1.02
2023-02-04T10:18:46.870Z,1.17
2023-02-04T10:21:24.424Z,1.35
2023-02-04T10:23:54.758Z,1.02
2023-02-04T10:26:22.712Z,1.20
2023-02-04T10:28:52.049Z,1.10
2023-02-04T10:31:38.199Z,1.20
2023-02-04T10:34:18.549Z,1.50
2023-02-04T10:36:48.432Z,1.20
2023-02-04T10:39:23.668Z,1.77
2023-02-04T10:41:55.140Z,1.20
2023-02-04T10:44:29.860Z,1.10
2023-02-04T10:47:17.385Z,0.90
2023-02-04T10:50:06.198Z,1.10
2023-02-04T10:52:42.002Z,1.02
2023-02-04T10:55:15.722Z,1.00
2023-02-04T10:57:44.686Z,0.93
2023-02-04T11:00:22.996Z,0.98
2023-02-04T11:03:03.690Z,0.75
2023-02-04T11:05:32.814Z,0.77
2023-02-04T11:07:59.662Z,0.93
2023-02-04T11:10:32.687Z,0.70
2023-02-04T11:13:06.062Z,0.90
2023-02-04T11:16:08.304Z,0.68
2023-02-04T11:18:47.042Z,0.60
2023-02-04T11:21:26.143Z,0.50
2023-02-04T11:24:11.029Z,0.43
2023-02-04T11:26:40.243Z,0.60
2023-02-04T11:29:06.701Z,0.45
2023-02-04T11:31:45.583Z,0.60
2023-02-04T11:34:15.193Z,0.55
2023-02-04T11:36:57.018Z,0.40
2023-02-04T11:39:28.870Z,0.52
2023-02-04T11:41:55.464Z,0.50
2023-02-04T11:44:23.111Z,0.50
2023-02-04T11:46:56.677Z,0.50
2023-02-04T11:49:26.444Z,0.52
2023-02-04T11:52:08.630Z,0.40
2023-02-04T11:54:36.489Z,0.50
2023-02-04T11:57:03.452Z,0.60
2023-02-04T11:59:30.046Z,0.73
2023-02-04T12:02:18.025Z,0.40
2023-02-04T12:05:11.705Z,0.40
2023-02-04T12:07:38.483Z,0.30
2023-02-04T12:10:15.308Z,0.52
2023-02-04T12:12:49.997Z,0.40
2023-02-04T12:15:24.028Z,0.50
2023-02-04T12:18:05.220Z,0.40
2023-02-04T12:20:31.716Z,0.50
2023-02-04T12:22:58.521Z,0.50
2023-02-04T12:25:26.097Z,0.65
2023-02-04T12:27:55.968Z,0.38
2023-02-04T12:30:23.738Z,0.38
2023-02-04T12:32:50.236Z,0.60
2023-02-04T12:35:17.145Z,0.60
2023-02-04T12:37:43.973Z,0.40
2023-02-04T12:40:19.109Z,0.60
2023-02-04T12:42:45.774Z,0.40
2023-02-04T12:45:14.251Z,0.50
2023-02-04T12:47:42.227Z,0.50
2023-02-04T12:50:10.756Z,0.32
2023-02-04T12:52:37.239Z,0.60
2023-02-04T12:55:05.172Z,0.40
2023-02-04T12:57:32.619Z,0.63
2023-02-04T13:00:01.346Z,0.50
2023-02-04T13:02:28.689Z,0.60
2023-02-04T13:04:55.366Z,0.40
2023-02-04T13:07:23.020Z,0.70
2023-02-04T13:09:49.556Z,0.40
2023-02-04T13:12:16.378Z,0.70
2023-02-04T13:14:43.890Z,0.50
2023-02-04T13:17:10.406Z,0.40
2023-02-04T13:19:37.025Z,0.70
2023-02-04T13:22:03.885Z,0.50
2023-02-04T13:24:31.060Z,0.47
2023-02-04T13:26:57.519Z,0.45
2023-02-04T13:29:24.067Z,0.70
2023-02-04T13:31:52.119Z,0.32
2023-02-04T13:34:19.414Z,0.77
2023-02-04T13:36:46.004Z,0.40
2023-02-04T13:39:12.495Z,0.57
2023-02-04T13:41:39.072Z,0.70
2023-02-04T13:44:05.691Z,0.70
2023-02-04T13:46:33.356Z,0.50
2023-02-04T13:48:59.892Z,0.40
2023-02-04T13:51:27.276Z,0.52
2023-02-04T13:53:53.845Z,0.47
2023-02-04T13:56:20.356Z,0.40
2023-02-04T13:58:46.817Z,0.43
2023-02-04T14:01:14.055Z,0.60
2023-02-04T14:03:41.248Z,0.50
2023-02-04T14:06:09.588Z,0.38
2023-02-04T14:08:36.239Z,0.60
2023-02-04T14:11:02.833Z,0.20
2023-02-04T14:13:29.461Z,0.32
2023-02-04T14:15:56.022Z,0.40
2023-02-04T14:18:22.687Z,0.40
2023-02-04T14:20:49.422Z,0.40
2023-02-04T14:23:16.129Z,0.50
2023-02-04T14:25:42.680Z,0.30
2023-02-04T14:28:09.297Z,0.22
2023-02-04T14:30:36.473Z,0.30
2023-02-04T14:33:03.466Z,0.30
2023-02-04T14:35:30.429Z,0.50
2023-02-04T14:37:57.032Z,0.40
2023-02-04T14:40:23.654Z,0.60
2023-02-04T14:42:50.174Z,0.25
2023-02-04T14:45:16.920Z,0.40
2023-02-04T14:47:43.520Z,0.40
2023-02-04T14:50:15.125Z,0.47
2023-02-04T14:52:42.200Z,1.20
2023-02-04T14:55:11.062Z,0.70
2023-02-04T14:57:37.677Z,0.63
2023-02-04T15:00:06.910Z,1.77
2023-02-04T15:02:33.589Z,2.15
2023-02-04T15:05:00.150Z,0.50
2023-02-04T15:07:28.057Z,0.43
2023-02-04T15:09:54.600Z,0.40
2023-02-04T15:12:22.617Z,0.40
2023-02-04T15:14:49.125Z,0.30
2023-02-04T15:17:15.602Z,0.57
2023-02-04T15:19:42.040Z,0.30
2023-02-04T15:22:08.775Z,0.43
2023-02-04T15:24:35.309Z,0.47
2023-02-04T15:27:02.060Z,0.90
2023-02-04T15:29:28.669Z,0.63
2023-02-04T15:31:56.176Z,0.73
2023-02-04T15:34:22.716Z,0.45
2023-02-04T15:36:49.290Z,0.47
2023-02-04T15:39:15.887Z,0.38
2023-02-04T15:41:42.357Z,11.48
2023-02-04T15:44:09.303Z,10.93
2023-02-04T15:46:35.991Z,12.77
2023-02-04T15:49:02.728Z,3.80
2023-02-04T15:51:29.316Z,2.15
2023-02-04T15:53:55.902Z,3.85
2023-02-04T15:56:22.492Z,1.90
2023-02-04T15:58:49.048Z,1.38
2023-02-04T16:01:15.679Z,1.30
2023-02-04T16:03:44.740Z,1.42
2023-02-04T16:06:11.588Z,0.82
2023-02-04T16:08:38.860Z,1.10
2023-02-04T16:11:06.170Z,1.17
2023-02-04T16:13:32.908Z,1.00
2023-02-04T16:15:59.460Z,0.95
2023-02-04T16:18:26.380Z,1.48
2023-02-04T16:20:53.005Z,1.98
2023-02-04T16:23:19.672Z,1.65
2023-02-04T16:25:46.770Z,2.38
2023-02-04T16:28:13.434Z,2.80
2023-02-04T16:30:41.122Z,2.53
2023-02-04T16:33:07.789Z,2.10
2023-02-04T16:35:58.554Z,1.40
2023-02-04T16:38:25.716Z,1.30
2023-02-04T16:40:52.296Z,2.00
2023-02-04T16:43:18.905Z,3.60
2023-02-04T16:45:45.426Z,2.97
2023-02-04T16:48:12.499Z,3.67
2023-02-04T16:50:38.980Z,1.92
2023-02-04T16:53:05.734Z,2.60
2023-02-04T16:55:33.599Z,1.55
2023-02-04T16:58:00.246Z,1.58
2023-02-04T17:00:27.059Z,1.40
2023-02-04T17:02:53.602Z,1.10
2023-02-04T17:05:20.151Z,2.58
2023-02-04T17:07:46.967Z,2.30
2023-02-04T17:10:13.526Z,2.92
2023-02-04T17:12:40.028Z,3.55
2023-02-04T17:15:06.806Z,4.65
2023-02-04T17:17:33.312Z,4.75
2023-02-04T17:20:00.446Z,2.92
2023-02-04T17:22:27.112Z,2.90
2023-02-04T17:24:53.766Z,2.80
2023-02-04T17:27:22.392Z,2.30
2023-02-04T17:29:49.580Z,2.40
2023-02-04T17:32:16.078Z,2.40
2023-02-04T17:34:42.733Z,2.55
2023-02-04T17:37:09.304Z,2.55
2023-02-04T17:39:35.817Z,2.08
2023-02-04T17:42:02.454Z,2.50
2023-02-04T17:44:28.968Z,2.72
2023-02-04T17:46:55.736Z,3.03
2023-02-04T17:49:22.377Z,3.30
2023-02-04T17:51:48.845Z,3.55
2023-02-04T17:54:15.598Z,5.90
2023-02-04T17:56:42.053Z,4.10
2023-02-04T17:59:11.812Z,4.95
2023-02-04T18:01:40.750Z,3.63
2023-02-04T18:04:14.056Z,3.58
2023-02-04T18:06:40.794Z,4.07
2023-02-04T18:09:17.878Z,3.22
2023-02-04T18:11:45.091Z,3.38
2023-02-04T18:14:17.854Z,3.83
2023-02-04T18:16:44.774Z,3.10
2023-02-04T18:19:28.649Z,2.25
2023-02-04T18:21:55.566Z,3.30
2023-02-04T18:24:36.075Z,4.50
2023-02-04T18:27:15.591Z,6.55
2023-02-04T18:29:45.220Z,3.63
2023-02-04T18:32:21.409Z,3.70
2023-02-04T18:34:53.658Z,4.00
2023-02-04T18:37:25.964Z,7.25
2023-02-04T18:40:10.715Z,13.07
2023-02-04T18:42:42.299Z,10.65
2023-02-04T18:45:30.133Z,8.05
2023-02-04T18:47:59.199Z,8.55
2023-02-04T18:50:32.437Z,8.88
2023-02-04T18:53:25.588Z,7.90
2023-02-04T18:55:55.246Z,8.10
2023-02-04T18:58:41.636Z,7.25
2023-02-04T19:01:11.473Z,7.53
2023-02-04T19:03:49.264Z,7.32
2023-02-04T19:06:38.047Z,5.47
2023-02-04T19:09:10.194Z,12.60
2023-02-04T19:11:45.821Z,14.48
2023-02-04T19:14:36.566Z,21.40
2023-02-04T19:17:26.444Z,10.45
2023-02-04T19:20:08.666Z,9.60
2023-02-04T19:22:35.040Z,5.93
2023-02-04T19:25:35.728Z,5.07
2023-02-04T19:28:22.778Z,9.95
2023-02-04T19:30:54.803Z,8.57
2023-02-04T19:33:31.362Z,7.18
2023-02-04T19:36:00.612Z,5.68
2023-02-04T19:38:38.639Z,5.13
2023-02-04T19:41:27.124Z,4.88
2023-02-04T19:44:14.028Z,8.00
2023-02-04T19:46:43.858Z,7.18
2023-02-04T19:49:29.348Z,7.18
2023-02-04T19:51:59.050Z,7.00
2023-02-04T19:54:38.630Z,7.18
2023-02-04T19:57:22.721Z,6.00
2023-02-04T19:59:49.234Z,6.38
2023-02-04T20:02:33.359Z,6.35
2023-02-04T20:05:00.371Z,7.70
2023-02-04T20:07:29.311Z,9.63
2023-02-04T20:10:24.936Z,9.68
2023-02-04T20:12:55.804Z,9.68
2023-02-04T20:15:25.442Z,9.27
2023-02-04T20:17:52.472Z,8.35
2023-02-04T20:20:21.148Z,8.75
2023-02-04T20:22:50.533Z,8.30
2023-02-04T20:25:19.769Z,7.68
2023-02-04T20:27:55.429Z,8.02
2023-02-04T20:30:28.131Z,6.35
2023-02-04T20:32:57.081Z,6.22
2023-02-04T20:35:23.452Z,6.68
2023-02-04T20:37:53.784Z,6.90
2023-02-04T20:40:34.041Z,7.45
2023-02-04T20:43:15.853Z,6.82
2023-02-04T20:46:00.006Z,6.57
2023-02-04T20:48:38.008Z,5.10
2023-02-04T20:51:14.785Z,4.93
2023-02-04T20:53:48.459Z,4.90
2023-02-04T20:56:37.342Z,5.30
2023-02-04T20:59:23.716Z,6.10
2023-02-04T21:01:50.677Z,8.13
2023-02-04T21:04:25.943Z,8.65
2023-02-04T21:06:55.100Z,8.75
2023-02-04T21:09:27.512Z,8.85
2023-02-04T21:11:56.002Z,8.57
2023-02-04T21:14:23.408Z,7.50
2023-02-04T21:16:50.126Z,5.90
2023-02-04T21:19:16.917Z,5.97
2023-02-04T21:21:43.824Z,6.65
2023-02-04T21:24:10.490Z,5.78
2023-02-04T21:26:37.265Z,5.72
2023-02-04T21:29:07.792Z,6.80
2023-02-04T21:31:34.569Z,5.68
2023-02-04T21:34:01.169Z,6.38
2023-02-04T21:36:27.906Z,6.13
2023-02-04T21:38:55.507Z,5.85
2023-02-04T21:41:22.207Z,6.05
2023-02-04T21:43:50.739Z,6.30
2023-02-04T21:46:18.189Z,6.60
2023-02-04T21:48:45.018Z,6.80
2023-02-04T21:51:12.978Z,6.88
2023-02-04T21:53:40.455Z,6.68
2023-02-04T21:56:08.239Z,6.40
2023-02-04T21:58:35.212Z,5.68
2023-02-04T22:01:01.707Z,5.30
2023-02-04T22:03:28.279Z,4.72
2023-02-04T22:05:54.728Z,5.45
2023-02-04T22:08:21.840Z,4.65
2023-02-04T22:10:48.365Z,5.07
2023-02-04T22:13:14.790Z,5.55
2023-02-04T22:15:41.277Z,6.70
2023-02-04T22:18:07.740Z,6.25
2023-02-04T22:20:34.199Z,5.78
2023-02-04T22:23:00.967Z,6.47
2023-02-04T22:25:27.506Z,5.78
2023-02-04T22:27:54.079Z,6.60
2023-02-04T22:30:20.804Z,6.78
2023-02-04T22:32:47.413Z,8.02
2023-02-04T22:35:14.799Z,7.78
2023-02-04T22:37:42.504Z,6.78
2023-02-04T22:40:11.865Z,6.22
2023-02-04T22:42:38.485Z,6.30
2023-02-04T22:45:05.460Z,6.32
2023-02-04T22:47:32.041Z,6.70
2023-02-04T22:49:58.618Z,5.93
2023-02-04T22:52:25.842Z,6.18
2023-02-04T22:54:52.511Z,5.68
2023-02-04T22:57:19.129Z,5.90
2023-02-04T22:59:45.605Z,6.80
2023-02-04T23:02:12.134Z,6.20
2023-02-04T23:04:38.788Z,6.38
2023-02-04T23:07:05.487Z,6.10
2023-02-04T23:09:33.600Z,5.65
2023-02-04T23:12:12.598Z,5.10
2023-02-04T23:14:44.631Z,5.07
2023-02-04T23:17:11.999Z,8.10
2023-02-04T23:19:39.000Z,7.32
2023-02-04T23:22:06.672Z,5.15
2023-02-04T23:24:34.093Z,6.38
2023-02-04T23:27:01.114Z,6.68
2023-02-04T23:29:29.228Z,4.55
2023-02-04T23:31:56.579Z,4.95
2023-02-04T23:34:24.071Z,5.75
2023-02-04T23:36:53.849Z,5.28
2023-02-04T23:39:21.386Z,5.03
2023-02-04T23:41:48.432Z,5.07
2023-02-04T23:44:15.122Z,5.10
2023-02-04T23:46:42.204Z,5.30
2023-02-04T23:49:09.281Z,5.40
2023-02-04T23:51:36.682Z,5.05
2023-02-04T23:54:03.468Z,5.25
2023-02-04T23:56:30.055Z,5.40
2023-02-04T23:58:56.748Z,4.95
